Miami, Florida
Traffic Map
Current Weather Conditions
Miami, Florida
Broken Clouds
Broken Clouds
79°
Feels Like: 82°
Wind Chill: 79° Ceiling: 13000
Heat Index: 82° Visibility: 10mi
Dew Point: 72° Wind: 10mph
Humidity: 79% Direction: 50° (NE)
Pressure: 30.1in Gusts: 0mph
Raw Report DataKMIA 292253Z 05009KT 10SM FEW024 SCT060 BKN130 BKN250 26/22 A3010 RMK AO2 SLP194 CB DSNT NE AND SE T02610222
Traffic Incident Summary
Active as of:
Severity:
Category:
InformationThere was an issue retrieving the traffic information for this location. Please try a different location or try again shortly.
Advertisements
Track Severe Weather on mobile